Time;durP1;ratioP1;P1;durP2;ratioP2;P2;SDS_P1;SDS_P2;PMS_P1;PMS_P2;Temp;Humidity;BMP_temperature;BMP_pressure;BME280_temperature;BME280_humidity;BME280_pressure;Samples;Min_cycle;Max_cycle;Signal;HPM_P1;HPM_P2
2022/03/10 00:00:11;;;;;;;6.75;5.82;;;;;;;;;;4858649;29;20072;-80
2022/03/10 00:02:43;;;;;;;4.85;3.92;;;;;;;;;;4859014;29;20057;-80
2022/03/10 00:05:13;;;;;;;5.43;4.00;;;;;;;;;;4858188;29;20053;-80
2022/03/10 00:07:41;;;;;;;6.80;4.75;;;;;;;;;;4859036;29;20065;-80
2022/03/10 00:10:09;;;;;;;6.38;5.78;;;;;;;;;;4857699;29;20054;-80
2022/03/10 00:12:50;;;;;;;6.22;5.20;;;;;;;;;;4858534;29;20054;-80
2022/03/10 00:15:23;;;;;;;5.80;4.85;;;;;;;;;;4859128;29;20061;-80
2022/03/10 00:17:52;;;;;;;10.32;5.13;;;;;;;;;;4857347;29;20053;-79
2022/03/10 00:20:20;;;;;;;10.20;4.03;;;;;;;;;;4839803;29;20065;-80
2022/03/10 00:22:50;;;;;;;8.20;5.88;;;;;;;;;;4842619;29;20494;-80
2022/03/10 00:25:18;;;;;;;8.45;5.50;;;;;;;;;;4857972;29;20105;-80
2022/03/10 00:27:46;;;;;;;12.25;5.68;;;;;;;;;;4858404;29;20766;-79
2022/03/10 00:30:15;;;;;;;9.52;7.60;;;;;;;;;;4858269;29;20072;-80
2022/03/10 00:32:48;;;;;;;5.45;4.60;;;;;;;;;;4858248;29;20505;-80
2022/03/10 00:35:23;;;;;;;9.57;5.82;;;;;;;;;;4858570;29;20519;-80
2022/03/10 00:37:58;;;;;;;5.22;4.40;;;;;;;;;;4857875;29;20057;-80
2022/03/10 00:40:26;;;;;;;10.57;5.60;;;;;;;;;;4857477;29;20053;-80
2022/03/10 00:42:54;;;;;;;9.20;4.90;;;;;;;;;;4841773;29;20412;-80
2022/03/10 00:45:23;;;;;;;7.07;4.95;;;;;;;;;;4858122;29;20049;-80
2022/03/10 00:47:52;;;;;;;9.38;5.65;;;;;;;;;;4857474;29;20498;-80
2022/03/10 00:50:20;;;;;;;6.13;4.85;;;;;;;;;;4857938;29;20058;-80
2022/03/10 00:52:49;;;;;;;10.85;5.32;;;;;;;;;;4857773;29;20057;-80
2022/03/10 00:55:17;;;;;;;9.13;5.80;;;;;;;;;;4857654;29;20053;-80
2022/03/10 00:57:47;;;;;;;10.20;6.65;;;;;;;;;;4857682;29;20685;-80
2022/03/10 01:00:16;;;;;;;6.90;4.20;;;;;;;;;;4857463;29;20057;-80
2022/03/10 01:02:45;;;;;;;9.77;6.05;;;;;;;;;;4857464;29;20058;-80
2022/03/10 01:05:14;;;;;;;7.78;5.53;;;;;;;;;;4840578;29;20050;-80
2022/03/10 01:07:46;;;;;;;11.05;6.43;;;;;;;;;;4857083;29;20049;-80
2022/03/10 01:10:14;;;;;;;11.55;7.57;;;;;;;;;;4857524;29;20057;-80
2022/03/10 01:12:45;;;;;;;14.48;5.75;;;;;;;;;;4840733;29;20512;-80
2022/03/10 01:15:15;;;;;;;6.03;5.10;;;;;;;;;;4858008;29;20072;-80
2022/03/10 01:17:43;;;;;;;6.45;5.38;;;;;;;;;;4857144;29;20046;-80
2022/03/10 01:20:12;;;;;;;7.80;5.90;;;;;;;;;;4857047;29;20054;-80
2022/03/10 01:22:40;;;;;;;6.30;5.43;;;;;;;;;;4857566;29;20060;-80
2022/03/10 01:25:21;;;;;;;6.05;4.90;;;;;;;;;;4857166;29;20531;-80
2022/03/10 01:28:36;;;;;;;13.20;6.43;;;;;;;;;;4856796;29;20419;-80
2022/03/10 01:31:58;;;;;;;6.85;5.40;;;;;;;;;;4838285;29;20054;-80
2022/03/10 01:35:17;;;;;;;6.88;5.57;;;;;;;;;;4826502;29;20060;-81
2022/03/10 01:38:42;;;;;;;10.95;6.43;;;;;;;;;;4805245;29;20125;-80
2022/03/10 01:41:59;;;;;;;7.53;5.35;;;;;;;;;;4837374;29;20042;-80
2022/03/10 01:44:55;;;;;;;8.60;5.65;;;;;;;;;;4825650;29;20061;-80
2022/03/10 01:47:23;;;;;;;15.32;7.22;;;;;;;;;;4832266;29;20054;-80
2022/03/10 01:49:51;;;;;;;7.00;4.97;;;;;;;;;;4838287;29;20061;-80
2022/03/10 01:52:20;;;;;;;6.15;4.95;;;;;;;;;;4838481;29;20073;-80
2022/03/10 01:54:49;;;;;;;5.80;4.95;;;;;;;;;;4838736;29;20065;-80
2022/03/10 01:57:18;;;;;;;5.07;4.57;;;;;;;;;;4838620;29;20058;-80
2022/03/10 01:59:46;;;;;;;5.25;4.25;;;;;;;;;;4836666;29;20477;-80
2022/03/10 02:02:14;;;;;;;6.95;5.22;;;;;;;;;;4838671;29;20054;-80
2022/03/10 02:04:42;;;;;;;6.05;4.30;;;;;;;;;;4821448;29;20058;-80
2022/03/10 02:10:16;;;;;;;6.00;4.53;;;;;;;;;;4837518;29;20436;-80
2022/03/10 02:12:49;;;;;;;7.15;5.63;;;;;;;;;;4837988;29;20061;-80
2022/03/10 02:18:05;;;;;;;10.52;5.72;;;;;;;;;;4833968;29;20046;-80
2022/03/10 02:20:35;;;;;;;5.90;5.00;;;;;;;;;;4834344;29;20061;-80
2022/03/10 02:23:04;;;;;;;8.90;5.10;;;;;;;;;;4838018;29;20054;-80
2022/03/10 02:25:32;;;;;;;11.05;6.82;;;;;;;;;;4837599;29;20587;-80
2022/03/10 02:28:00;;;;;;;8.60;6.15;;;;;;;;;;4837874;29;20516;-80
2022/03/10 02:30:31;;;;;;;11.95;7.65;;;;;;;;;;4853769;29;20706;-80
2022/03/10 02:32:59;;;;;;;5.50;5.03;;;;;;;;;;4839278;29;20066;-80
2022/03/10 02:35:28;;;;;;;14.93;5.45;;;;;;;;;;4856053;29;20416;-80
2022/03/10 02:37:56;;;;;;;9.38;5.40;;;;;;;;;;4855711;29;20064;-80
2022/03/10 02:40:25;;;;;;;10.52;4.90;;;;;;;;;;4855678;29;20060;-80
2022/03/10 02:42:53;;;;;;;8.10;6.25;;;;;;;;;;4856414;29;20053;-80
2022/03/10 02:45:22;;;;;;;10.93;7.20;;;;;;;;;;4855810;29;20785;-80
2022/03/10 02:47:50;;;;;;;7.32;4.38;;;;;;;;;;4855439;29;20070;-80
2022/03/10 02:50:18;;;;;;;7.53;5.97;;;;;;;;;;4852138;29;20415;-80
2022/03/10 02:52:46;;;;;;;7.47;5.22;;;;;;;;;;4874525;29;20053;-81
2022/03/10 02:55:15;;;;;;;9.45;5.35;;;;;;;;;;4874471;29;20056;-80
2022/03/10 02:57:43;;;;;;;6.82;4.97;;;;;;;;;;4844984;29;20060;-80
2022/03/10 03:00:14;;;;;;;7.82;5.40;;;;;;;;;;4854024;29;20737;-80
2022/03/10 03:02:42;;;;;;;6.47;5.03;;;;;;;;;;4853611;29;20499;-80
2022/03/10 03:05:14;;;;;;;6.60;5.45;;;;;;;;;;4852292;29;20057;-80
2022/03/10 03:07:47;;;;;;;8.63;5.57;;;;;;;;;;4854580;29;20060;-80
2022/03/10 03:10:17;;;;;;;5.03;4.50;;;;;;;;;;4849221;29;20041;-80
2022/03/10 03:12:46;;;;;;;6.13;5.50;;;;;;;;;;4852998;29;20048;-80
2022/03/10 03:15:15;;;;;;;7.32;5.13;;;;;;;;;;4855607;29;20069;-80
2022/03/10 03:17:47;;;;;;;6.28;3.97;;;;;;;;;;4855777;29;20056;-80
2022/03/10 03:20:16;;;;;;;10.15;7.47;;;;;;;;;;4855269;29;20049;-80
2022/03/10 03:22:44;;;;;;;8.93;5.40;;;;;;;;;;4856175;29;20049;-80
2022/03/10 03:25:14;;;;;;;7.07;5.35;;;;;;;;;;4854890;29;20060;-80
2022/03/10 03:27:45;;;;;;;6.40;4.35;;;;;;;;;;4854807;29;20077;-80
2022/03/10 03:30:13;;;;;;;9.43;4.95;;;;;;;;;;4855977;29;20535;-80
2022/03/10 03:32:41;;;;;;;6.60;5.63;;;;;;;;;;4855828;29;20050;-80
2022/03/10 03:35:10;;;;;;;7.38;6.55;;;;;;;;;;4855868;29;20049;-80
2022/03/10 03:37:38;;;;;;;7.00;4.80;;;;;;;;;;4854926;29;20064;-80
2022/03/10 03:40:07;;;;;;;9.27;5.32;;;;;;;;;;4854759;29;20057;-80
2022/03/10 03:42:35;;;;;;;14.98;5.25;;;;;;;;;;4856042;29;20064;-80
2022/03/10 03:45:04;;;;;;;11.18;4.65;;;;;;;;;;4854918;29;20053;-80
2022/03/10 03:47:32;;;;;;;8.73;5.60;;;;;;;;;;4845198;29;20050;-80
2022/03/10 03:50:00;;;;;;;9.18;5.38;;;;;;;;;;4855097;29;20049;-80
2022/03/10 03:52:28;;;;;;;6.78;5.30;;;;;;;;;;4855127;29;20053;-80
2022/03/10 03:54:56;;;;;;;6.47;5.78;;;;;;;;;;4855121;29;20053;-80
2022/03/10 03:57:25;;;;;;;8.10;5.65;;;;;;;;;;4854912;29;20049;-80
2022/03/10 03:59:53;;;;;;;8.82;5.45;;;;;;;;;;4855220;29;20054;-80
2022/03/10 04:02:21;;;;;;;6.20;4.43;;;;;;;;;;4855567;29;20065;-80
2022/03/10 04:04:50;;;;;;;10.50;6.07;;;;;;;;;;4854550;29;20057;-80
2022/03/10 04:07:18;;;;;;;8.18;5.70;;;;;;;;;;4854112;29;20052;-80
2022/03/10 04:09:46;;;;;;;6.15;4.95;;;;;;;;;;4854045;29;20049;-80
2022/03/10 04:12:16;;;;;;;7.68;5.45;;;;;;;;;;4854623;29;20045;-80
2022/03/10 04:14:44;;;;;;;7.25;6.40;;;;;;;;;;4855235;29;20049;-80
2022/03/10 04:17:12;;;;;;;8.65;5.90;;;;;;;;;;4854686;29;20064;-80
2022/03/10 04:19:40;;;;;;;10.93;6.40;;;;;;;;;;4840946;29;20779;-80
2022/03/10 04:22:08;;;;;;;7.70;5.35;;;;;;;;;;4853370;29;20061;-80
2022/03/10 04:24:35;;;;;;;7.60;5.65;;;;;;;;;;4855117;29;20068;-80
2022/03/10 04:27:03;;;;;;;6.07;4.75;;;;;;;;;;4855026;29;20412;-80
2022/03/10 04:29:31;;;;;;;5.95;4.85;;;;;;;;;;4854679;29;20058;-80
2022/03/10 04:32:00;;;;;;;5.95;5.32;;;;;;;;;;4854539;29;20057;-80
2022/03/10 04:34:28;;;;;;;6.63;5.65;;;;;;;;;;4855390;29;20069;-80
2022/03/10 04:36:56;;;;;;;4.70;3.97;;;;;;;;;;4854628;29;20062;-80
2022/03/10 04:39:24;;;;;;;5.78;5.20;;;;;;;;;;4857080;29;20053;-80
2022/03/10 04:41:52;;;;;;;8.07;5.65;;;;;;;;;;4857569;29;20058;-80
2022/03/10 04:44:20;;;;;;;11.07;7.25;;;;;;;;;;4857390;29;20396;-80
2022/03/10 04:47:04;;;;;;;4.28;3.97;;;;;;;;;;4857879;29;20046;-80
2022/03/10 04:50:25;;;;;;;9.48;5.63;;;;;;;;;;4868007;29;20049;-80
2022/03/10 04:53:43;;;;;;;15.88;4.25;;;;;;;;;;4866564;29;20045;-80
2022/03/10 04:57:02;;;;;;;6.55;5.05;;;;;;;;;;4843009;29;20049;-80
2022/03/10 04:59:51;;;;;;;9.40;5.30;;;;;;;;;;4844083;29;20057;-80
2022/03/10 05:02:19;;;;;;;7.07;5.07;;;;;;;;;;4858286;29;20061;-81
2022/03/10 05:04:47;;;;;;;5.63;4.30;;;;;;;;;;4857123;29;20499;-78
2022/03/10 05:07:15;;;;;;;7.85;4.47;;;;;;;;;;4857358;29;20049;-80
2022/03/10 05:09:43;;;;;;;6.47;4.85;;;;;;;;;;4851368;29;20518;-80
2022/03/10 05:12:12;;;;;;;5.20;4.70;;;;;;;;;;4856804;29;20057;-81
2022/03/10 05:14:40;;;;;;;7.25;5.38;;;;;;;;;;4858154;29;20820;-81
2022/03/10 05:17:08;;;;;;;6.30;5.18;;;;;;;;;;4857536;29;20061;-80
2022/03/10 05:19:36;;;;;;;8.68;5.95;;;;;;;;;;4857623;29;20483;-81
2022/03/10 05:22:04;;;;;;;7.93;5.45;;;;;;;;;;4840435;29;20057;-80
2022/03/10 05:24:32;;;;;;;8.13;5.35;;;;;;;;;;4857215;29;20527;-80
2022/03/10 05:27:01;;;;;;;6.68;5.65;;;;;;;;;;4858011;29;20655;-80
2022/03/10 05:29:28;;;;;;;7.93;5.78;;;;;;;;;;4856692;29;20062;-80
2022/03/10 05:31:56;;;;;;;5.82;5.32;;;;;;;;;;4857239;29;20053;-79
2022/03/10 05:34:24;;;;;;;8.75;6.70;;;;;;;;;;4840828;29;20053;-80
2022/03/10 05:36:54;;;;;;;9.20;5.78;;;;;;;;;;4856935;29;20057;-80
2022/03/10 05:39:25;;;;;;;6.97;6.30;;;;;;;;;;4840682;29;20050;-78
2022/03/10 05:41:53;;;;;;;8.30;4.88;;;;;;;;;;4856851;29;20495;-79
2022/03/10 05:44:21;;;;;;;6.22;4.72;;;;;;;;;;4856996;29;20057;-80
2022/03/10 05:46:49;;;;;;;8.35;5.22;;;;;;;;;;4850052;29;20050;-80
2022/03/10 05:49:17;;;;;;;6.22;5.63;;;;;;;;;;4859417;29;20057;-80
2022/03/10 05:51:45;;;;;;;7.47;5.22;;;;;;;;;;4839455;29;20057;-83
2022/03/10 05:54:14;;;;;;;11.30;4.75;;;;;;;;;;4843861;29;20576;-81
2022/03/10 05:56:42;;;;;;;8.40;4.57;;;;;;;;;;4837764;29;20077;-81
2022/03/10 05:59:10;;;;;;;5.47;4.93;;;;;;;;;;4838473;29;20050;-78
2022/03/10 06:01:38;;;;;;;8.25;4.68;;;;;;;;;;4837939;29;20624;-81
2022/03/10 06:04:06;;;;;;;6.90;4.85;;;;;;;;;;4838158;29;20050;-81
2022/03/10 06:06:36;;;;;;;8.70;5.82;;;;;;;;;;4838380;29;20054;-82
2022/03/10 06:09:04;;;;;;;9.20;5.43;;;;;;;;;;4837539;29;20504;-81
2022/03/10 06:11:33;;;;;;;5.95;5.45;;;;;;;;;;4837782;29;20520;-80
2022/03/10 06:14:01;;;;;;;9.43;5.68;;;;;;;;;;4837489;29;20069;-81
2022/03/10 06:16:29;;;;;;;6.13;5.20;;;;;;;;;;4837762;29;20073;-80
2022/03/10 06:18:58;;;;;;;8.07;5.88;;;;;;;;;;4846857;29;20488;-80
2022/03/10 06:21:28;;;;;;;7.22;4.15;;;;;;;;;;4855583;29;20068;-81
2022/03/10 06:23:57;;;;;;;6.00;5.15;;;;;;;;;;4855889;29;20054;-82
2022/03/10 06:26:26;;;;;;;5.47;4.78;;;;;;;;;;4856040;29;20075;-82
2022/03/10 06:28:54;;;;;;;3.53;3.20;;;;;;;;;;4855827;29;20140;-81
2022/03/10 06:31:24;;;;;;;11.38;6.13;;;;;;;;;;4839527;29;20420;-81
2022/03/10 06:33:52;;;;;;;9.10;6.68;;;;;;;;;;4855725;29;20068;-81
2022/03/10 06:36:23;;;;;;;5.75;5.20;;;;;;;;;;4855810;29;20046;-80
2022/03/10 06:38:51;;;;;;;7.63;5.68;;;;;;;;;;4855788;29;20049;-80
2022/03/10 06:41:19;;;;;;;8.48;6.07;;;;;;;;;;4855081;29;20057;-80
2022/03/10 06:43:47;;;;;;;5.72;4.35;;;;;;;;;;4855486;29;20053;-80
2022/03/10 06:46:15;;;;;;;7.72;6.43;;;;;;;;;;4856317;29;20069;-80
2022/03/10 06:48:43;;;;;;;6.47;5.45;;;;;;;;;;4837867;29;20050;-81
2022/03/10 06:51:11;;;;;;;6.90;5.75;;;;;;;;;;4874182;29;20053;-82
2022/03/10 06:53:39;;;;;;;6.53;4.30;;;;;;;;;;4873770;29;20053;-83
2022/03/10 06:56:07;;;;;;;6.55;5.53;;;;;;;;;;4873603;29;20049;-83
2022/03/10 06:58:36;;;;;;;13.63;5.60;;;;;;;;;;4838942;29;20479;-83
2022/03/10 07:01:04;;;;;;;6.00;5.20;;;;;;;;;;4836155;29;20065;-83
2022/03/10 07:03:32;;;;;;;9.00;6.93;;;;;;;;;;4837502;29;20054;-83
2022/03/10 07:06:00;;;;;;;9.40;5.28;;;;;;;;;;4828917;29;20049;-83
2022/03/10 07:08:28;;;;;;;10.88;5.72;;;;;;;;;;4855280;29;20084;-83
2022/03/10 07:10:56;;;;;;;8.77;4.78;;;;;;;;;;4855434;29;20049;-82
2022/03/10 07:13:24;;;;;;;7.35;5.07;;;;;;;;;;4854857;29;20070;-82
2022/03/10 07:15:55;;;;;;;;;;;;;;;;;;4839424;29;20060;-83
2022/03/10 07:18:23;;;;;;;7.13;5.88;;;;;;;;;;4855625;29;19928;-81
2022/03/10 07:20:53;;;;;;;7.50;5.28;;;;;;;;;;4838387;29;20064;-81
2022/03/10 07:23:21;;;;;;;10.07;8.02;;;;;;;;;;4862430;29;20064;-81
2022/03/10 07:25:49;;;;;;;5.72;4.88;;;;;;;;;;4863884;29;20057;-82
2022/03/10 07:28:17;;;;;;;14.45;6.93;;;;;;;;;;4843441;29;20120;-85
2022/03/10 07:30:45;;;;;;;6.32;5.72;;;;;;;;;;4862214;29;20053;-81
2022/03/10 07:33:13;;;;;;;5.18;4.78;;;;;;;;;;4847049;29;20045;-82
2022/03/10 07:35:41;;;;;;;9.77;7.07;;;;;;;;;;4863990;29;20057;-82
2022/03/10 07:38:10;;;;;;;8.95;7.45;;;;;;;;;;4844362;29;20071;-83
2022/03/10 07:40:38;;;;;;;11.77;7.50;;;;;;;;;;4855859;29;20120;-83
2022/03/10 07:43:06;;;;;;;7.15;4.97;;;;;;;;;;4829384;29;20053;-83
2022/03/10 07:45:34;;;;;;;13.20;7.30;;;;;;;;;;4838124;29;20053;-83
2022/03/10 07:48:02;;;;;;;9.85;6.03;;;;;;;;;;4854862;29;20052;-83
2022/03/10 07:50:30;;;;;;;7.93;6.10;;;;;;;;;;4859680;29;20057;-83
2022/03/10 07:52:58;;;;;;;5.90;4.72;;;;;;;;;;4838020;29;20057;-83
2022/03/10 07:55:27;;;;;;;8.02;4.53;;;;;;;;;;4855263;29;20057;-83
2022/03/10 07:57:55;;;;;;;8.13;6.13;;;;;;;;;;4837894;29;20041;-84
2022/03/10 08:00:23;;;;;;;6.93;6.03;;;;;;;;;;4854587;29;20054;-83
2022/03/10 08:02:52;;;;;;;5.70;4.65;;;;;;;;;;4838482;29;20050;-84
2022/03/10 08:05:20;;;;;;;6.57;4.28;;;;;;;;;;4853948;29;20050;-84
2022/03/10 08:07:49;;;;;;;9.55;5.85;;;;;;;;;;4854815;29;20062;-84
2022/03/10 08:10:17;;;;;;;6.47;5.20;;;;;;;;;;4838428;29;20049;-84
2022/03/10 08:12:45;;;;;;;6.68;5.07;;;;;;;;;;4855921;29;20066;-84
2022/03/10 08:15:21;;;;;;;10.02;4.78;;;;;;;;;;4858992;29;20104;-85
2022/03/10 08:17:49;;;;;;;8.10;6.15;;;;;;;;;;4857984;29;20064;-84
2022/03/10 08:20:17;;;;;;;17.13;8.55;;;;;;;;;;4840159;29;20382;-84
2022/03/10 08:22:45;;;;;;;5.80;4.72;;;;;;;;;;4840579;29;20054;-84
2022/03/10 08:25:13;;;;;;;7.07;5.05;;;;;;;;;;4839204;29;20072;-84
2022/03/10 08:27:41;;;;;;;9.50;4.55;;;;;;;;;;4823150;29;20069;-84
2022/03/10 08:30:13;;;;;;;8.02;6.10;;;;;;;;;;4834115;29;20081;-84
2022/03/10 08:32:44;;;;;;;9.75;5.45;;;;;;;;;;4841624;29;20492;-84
2022/03/10 08:35:16;;;;;;;5.97;4.75;;;;;;;;;;4841857;29;20050;-84
2022/03/10 08:37:44;;;;;;;7.20;4.88;;;;;;;;;;4857458;29;20096;-84
2022/03/10 08:40:19;;;;;;;7.32;6.55;;;;;;;;;;4857223;29;20046;-84
2022/03/10 08:42:48;;;;;;;6.32;5.13;;;;;;;;;;4858247;29;20050;-84
2022/03/10 08:45:19;;;;;;;7.10;6.45;;;;;;;;;;4841408;29;20050;-84
2022/03/10 08:47:47;;;;;;;7.55;4.78;;;;;;;;;;4857478;29;20061;-83
2022/03/10 08:50:22;;;;;;;11.00;6.53;;;;;;;;;;4846675;29;20049;-84
2022/03/10 08:52:51;;;;;;;7.60;4.80;;;;;;;;;;4857591;29;20419;-83
2022/03/10 08:55:23;;;;;;;10.13;6.25;;;;;;;;;;4858020;29;20056;-83
2022/03/10 08:57:51;;;;;;;5.85;4.47;;;;;;;;;;4845245;29;20053;-83
2022/03/10 09:00:22;;;;;;;7.95;6.78;;;;;;;;;;4838801;29;20046;-84
2022/03/10 09:02:59;;;;;;;5.20;4.50;;;;;;;;;;4839302;29;20054;-84
2022/03/10 09:05:28;;;;;;;6.47;4.30;;;;;;;;;;4838871;29;20061;-83
2022/03/10 09:07:59;;;;;;;4.65;4.22;;;;;;;;;;4822587;29;20054;-83
2022/03/10 09:10:32;;;;;;;5.00;4.13;;;;;;;;;;4837663;29;20050;-82
2022/03/10 09:13:01;;;;;;;4.82;4.32;;;;;;;;;;4838719;29;20080;-83
2022/03/10 09:15:29;;;;;;;6.05;5.05;;;;;;;;;;4822378;29;20058;-83
2022/03/10 09:17:59;;;;;;;6.75;4.80;;;;;;;;;;4838655;29;20042;-82
2022/03/10 09:20:29;;;;;;;5.82;4.88;;;;;;;;;;4807110;29;20049;-82
2022/03/10 09:22:57;;;;;;;5.55;4.32;;;;;;;;;;4839533;29;20050;-82
2022/03/10 09:25:26;;;;;;;8.65;6.18;;;;;;;;;;4837483;29;20042;-82
2022/03/10 09:27:54;;;;;;;7.35;5.15;;;;;;;;;;4838472;29;20050;-82
2022/03/10 09:30:22;;;;;;;5.35;3.38;;;;;;;;;;4838997;29;20054;-83
2022/03/10 09:32:51;;;;;;;5.38;3.08;;;;;;;;;;4822244;29;20049;-83
2022/03/10 09:35:19;;;;;;;7.55;4.55;;;;;;;;;;4838936;29;20069;-82
2022/03/10 09:37:47;;;;;;;8.85;3.95;;;;;;;;;;4821326;29;20049;-82
2022/03/10 09:40:15;;;;;;;5.82;5.32;;;;;;;;;;4820895;29;20496;-82
2022/03/10 09:42:43;;;;;;;6.72;5.68;;;;;;;;;;4822466;29;20484;-84
2022/03/10 09:45:11;;;;;;;4.43;4.03;;;;;;;;;;4806855;29;20076;-80
2022/03/10 09:47:41;;;;;;;7.13;5.18;;;;;;;;;;4839517;29;20427;-85
2022/03/10 09:50:10;;;;;;;4.95;3.38;;;;;;;;;;4855572;29;20057;-83
2022/03/10 09:52:39;;;;;;;6.47;4.97;;;;;;;;;;4839804;29;20064;-85
2022/03/10 09:55:07;;;;;;;5.97;5.40;;;;;;;;;;4809941;29;20054;-81
2022/03/10 09:57:38;;;;;;;4.68;4.22;;;;;;;;;;4839761;29;20437;-82
2022/03/10 10:00:08;;;;;;;4.70;4.25;;;;;;;;;;4839876;29;20060;-81
2022/03/10 10:02:37;;;;;;;6.13;3.42;;;;;;;;;;4849449;29;20061;-83
2022/03/10 10:05:26;;;;;;;13.52;11.10;;;;;;;;;;4837578;29;20062;-83
2022/03/10 10:08:03;;;;;;;7.00;5.68;;;;;;;;;;4836327;29;20058;-83
2022/03/10 10:10:32;;;;;;;11.48;5.53;;;;;;;;;;4838172;29;20061;-82
2022/03/10 10:13:07;;;;;;;7.28;5.45;;;;;;;;;;4820961;29;20054;-83
2022/03/10 10:15:43;;;;;;;6.03;4.50;;;;;;;;;;4806669;29;20057;-82
2022/03/10 10:18:15;;;;;;;8.38;5.65;;;;;;;;;;4790653;29;20528;-83
2022/03/10 10:21:05;;;;;;;;;;;;;;;;;;4821466;29;20065;-83
2022/03/10 10:23:42;;;;;;;7.43;5.43;;;;;;;;;;4821542;29;19950;-83
2022/03/10 10:26:11;;;;;;;5.25;4.85;;;;;;;;;;4804761;29;20054;-82
2022/03/10 10:28:47;;;;;;;6.60;6.03;;;;;;;;;;4820490;29;20058;-82
2022/03/10 10:31:19;;;;;;;5.15;3.95;;;;;;;;;;4806276;29;20065;-81
2022/03/10 10:34:00;;;;;;;6.25;4.47;;;;;;;;;;4837863;29;20060;-84
2022/03/10 10:36:31;;;;;;;8.50;6.88;;;;;;;;;;4820492;29;20058;-82
2022/03/10 10:39:09;;;;;;;4.90;3.58;;;;;;;;;;4806131;29;20050;-82
2022/03/10 10:41:42;;;;;;;8.02;4.93;;;;;;;;;;4820580;29;20046;-81
2022/03/10 10:44:16;;;;;;;5.03;4.32;;;;;;;;;;4820504;29;20053;-83
2022/03/10 10:46:45;;;;;;;10.52;4.63;;;;;;;;;;4841035;29;20074;-82
2022/03/10 10:49:18;;;;;;;7.25;5.28;;;;;;;;;;4837175;29;20420;-80
2022/03/10 10:51:50;;;;;;;6.95;4.00;;;;;;;;;;4855268;29;20064;-81
2022/03/10 10:54:23;;;;;;;5.35;4.60;;;;;;;;;;4839307;29;20053;-82
2022/03/10 10:56:55;;;;;;;9.70;6.35;;;;;;;;;;4855020;29;20056;-82
2022/03/10 10:59:34;;;;;;;7.03;4.57;;;;;;;;;;4855449;29;20050;-81
2022/03/10 11:02:11;;;;;;;5.95;4.72;;;;;;;;;;4854998;29;20053;-82
2022/03/10 11:04:43;;;;;;;6.25;3.47;;;;;;;;;;4838419;29;20526;-82
2022/03/10 11:07:12;;;;;;;5.20;3.55;;;;;;;;;;4855765;29;20057;-84
2022/03/10 11:09:42;;;;;;;6.95;4.47;;;;;;;;;;4822475;29;20053;-79
2022/03/10 11:12:11;;;;;;;4.32;3.72;;;;;;;;;;4822179;29;20074;-80
2022/03/10 11:14:39;;;;;;;3.88;3.40;;;;;;;;;;4823217;29;20053;-79
2022/03/10 11:17:08;;;;;;;6.57;5.28;;;;;;;;;;4822627;29;20069;-80
2022/03/10 11:19:38;;;;;;;3.92;3.47;;;;;;;;;;4854560;29;20682;-80
2022/03/10 11:22:15;;;;;;;4.13;3.33;;;;;;;;;;4837723;29;20052;-80
2022/03/10 11:25:21;;;;;;;9.27;4.80;;;;;;;;;;4853815;29;20049;-80
2022/03/10 11:27:51;;;;;;;4.45;3.97;;;;;;;;;;4796600;29;20066;-79
2022/03/10 11:30:29;;;;;;;3.85;3.20;;;;;;;;;;4845094;29;20069;-80
2022/03/10 11:33:06;;;;;;;3.95;3.45;;;;;;;;;;4854399;29;20053;-79
2022/03/10 11:35:39;;;;;;;5.47;3.65;;;;;;;;;;4853944;29;20088;-80
2022/03/10 11:38:09;;;;;;;5.50;4.97;;;;;;;;;;4837245;29;20061;-80
2022/03/10 11:40:40;;;;;;;5.35;4.85;;;;;;;;;;4853418;29;20283;-80
2022/03/10 11:43:09;;;;;;;4.53;4.00;;;;;;;;;;4838136;29;20057;-79
2022/03/10 11:45:37;;;;;;;4.63;3.20;;;;;;;;;;4854055;29;20054;-78
2022/03/10 11:48:23;;;;;;;5.03;4.60;;;;;;;;;;4855392;29;20045;-80
2022/03/10 11:50:52;;;;;;;10.90;4.45;;;;;;;;;;4858125;29;20060;-80
2022/03/10 11:53:20;;;;;;;5.72;4.95;;;;;;;;;;4858116;29;20054;-80
2022/03/10 11:55:52;;;;;;;5.72;4.50;;;;;;;;;;4857482;29;20057;-82
2022/03/10 11:58:30;;;;;;;9.00;5.15;;;;;;;;;;4857813;29;20124;-81
2022/03/10 12:00:59;;;;;;;5.18;4.68;;;;;;;;;;4841179;29;20132;-81
2022/03/10 12:03:31;;;;;;;7.45;6.72;;;;;;;;;;4841760;29;20051;-81
2022/03/10 12:06:00;;;;;;;8.05;6.13;;;;;;;;;;4857303;29;20057;-80
2022/03/10 12:08:29;;;;;;;5.05;4.10;;;;;;;;;;4857210;29;20053;-80
2022/03/10 12:10:57;;;;;;;8.98;5.40;;;;;;;;;;4857524;29;20050;-80
2022/03/10 12:13:39;;;;;;;4.68;4.28;;;;;;;;;;4857499;29;20510;-80
2022/03/10 12:16:08;;;;;;;7.10;4.30;;;;;;;;;;4857578;29;20379;-81
2022/03/10 12:18:39;;;;;;;7.38;4.43;;;;;;;;;;4851770;29;20065;-82
2022/03/10 12:21:28;;;;;;;16.60;5.63;;;;;;;;;;4848817;29;20045;-80
2022/03/10 12:23:57;;;;;;;6.00;5.35;;;;;;;;;;4866092;29;20491;-83
2022/03/10 12:26:39;;;;;;;5.53;4.43;;;;;;;;;;4860864;29;20069;-78
2022/03/10 12:29:08;;;;;;;5.60;3.97;;;;;;;;;;4863473;29;20053;-82
2022/03/10 12:31:36;;;;;;;11.43;7.57;;;;;;;;;;4865975;29;20411;-81
2022/03/10 12:34:08;;;;;;;4.38;3.92;;;;;;;;;;4853935;29;20061;-80
2022/03/10 12:36:36;;;;;;;5.82;5.00;;;;;;;;;;4875465;29;20084;-80
2022/03/10 12:39:14;;;;;;;6.30;5.22;;;;;;;;;;4875683;29;20057;-81
2022/03/10 12:41:46;;;;;;;5.60;3.70;;;;;;;;;;4874729;29;20522;-80
2022/03/10 12:44:18;;;;;;;10.43;5.40;;;;;;;;;;4875421;29;20114;-79
2022/03/10 12:46:46;;;;;;;8.32;4.38;;;;;;;;;;4872420;29;20049;-80
2022/03/10 12:49:24;;;;;;;6.53;4.95;;;;;;;;;;4860247;29;20096;-79
2022/03/10 12:51:57;;;;;;;9.48;7.00;;;;;;;;;;4842989;29;20057;-81
2022/03/10 12:54:25;;;;;;;10.32;9.05;;;;;;;;;;4858647;29;20049;-81
2022/03/10 12:56:54;;;;;;;15.90;7.35;;;;;;;;;;4836902;29;20467;-79
2022/03/10 12:59:33;;;;;;;10.43;6.10;;;;;;;;;;4837260;29;20065;-79
2022/03/10 13:02:18;;;;;;;8.75;5.30;;;;;;;;;;4821663;29;20053;-79
2022/03/10 13:04:50;;;;;;;8.05;5.47;;;;;;;;;;4872457;29;20049;-81
2022/03/10 13:07:22;;;;;;;5.72;3.10;;;;;;;;;;4876168;29;20522;-81
2022/03/10 13:09:54;;;;;;;12.23;6.80;;;;;;;;;;4866250;29;20057;-80
2022/03/10 13:12:26;;;;;;;4.30;3.92;;;;;;;;;;4856601;29;20057;-84
2022/03/10 13:14:55;;;;;;;14.10;5.03;;;;;;;;;;4839252;29;20070;-79
2022/03/10 13:17:38;;;;;;;9.95;8.25;;;;;;;;;;4840119;29;20060;-79
2022/03/10 13:20:22;;;;;;;6.95;5.10;;;;;;;;;;4856589;29;20060;-80
2022/03/10 13:22:51;;;;;;;6.03;3.45;;;;;;;;;;4827599;29;20058;-80
2022/03/10 13:25:23;;;;;;;6.13;4.57;;;;;;;;;;4837118;29;20057;-80
2022/03/10 13:27:52;;;;;;;7.97;5.07;;;;;;;;;;4821381;29;20064;-80
2022/03/10 13:30:23;;;;;;;8.40;4.57;;;;;;;;;;4838270;29;20774;-79
2022/03/10 13:32:52;;;;;;;4.38;3.67;;;;;;;;;;4806459;29;20057;-80
2022/03/10 13:35:22;;;;;;;7.80;4.90;;;;;;;;;;4821802;29;20496;-79
2022/03/10 13:37:50;;;;;;;5.90;3.05;;;;;;;;;;4836873;29;20887;-79
2022/03/10 13:40:18;;;;;;;4.60;4.20;;;;;;;;;;4836849;29;20050;-79
2022/03/10 13:42:49;;;;;;;4.28;3.88;;;;;;;;;;4838321;29;20078;-80
2022/03/10 13:45:17;;;;;;;6.95;4.75;;;;;;;;;;4821458;29;20053;-80
2022/03/10 13:47:50;;;;;;;9.82;6.40;;;;;;;;;;4853767;29;20068;-80
2022/03/10 13:50:22;;;;;;;4.97;3.72;;;;;;;;;;4841551;29;20403;-81
2022/03/10 13:52:52;;;;;;;5.65;4.45;;;;;;;;;;4855228;29;20052;-79
2022/03/10 13:55:25;;;;;;;8.82;5.15;;;;;;;;;;4861096;29;20065;-80
2022/03/10 13:57:54;;;;;;;11.00;3.22;;;;;;;;;;4849548;29;20574;-81
2022/03/10 14:00:30;;;;;;;7.63;4.32;;;;;;;;;;4852894;29;20059;-81
2022/03/10 14:03:08;;;;;;;5.88;3.58;;;;;;;;;;4874633;29;20060;-80
2022/03/10 14:05:47;;;;;;;9.43;3.72;;;;;;;;;;4857344;29;20052;-79
2022/03/10 14:08:17;;;;;;;8.95;4.28;;;;;;;;;;4873934;29;20041;-79
2022/03/10 14:10:46;;;;;;;6.20;3.60;;;;;;;;;;4873185;29;20069;-79
2022/03/10 14:13:14;;;;;;;4.22;3.45;;;;;;;;;;4858865;29;20045;-79
2022/03/10 14:15:45;;;;;;;5.25;3.70;;;;;;;;;;4855590;29;20476;-78
2022/03/10 14:18:15;;;;;;;13.60;6.95;;;;;;;;;;4851540;29;20837;-79
2022/03/10 14:20:53;;;;;;;5.75;5.20;;;;;;;;;;4836684;29;20050;-79
2022/03/10 14:23:22;;;;;;;5.30;4.82;;;;;;;;;;4836999;29;20686;-78
2022/03/10 14:25:52;;;;;;;6.00;3.20;;;;;;;;;;4819273;29;20062;-79
2022/03/10 14:28:31;;;;;;;8.23;5.55;;;;;;;;;;4849590;29;20057;-76
2022/03/10 14:31:07;;;;;;;6.32;4.95;;;;;;;;;;4839450;29;20045;-78
2022/03/10 14:33:36;;;;;;;4.28;3.65;;;;;;;;;;4838422;29;20053;-78
2022/03/10 14:36:07;;;;;;;7.32;4.43;;;;;;;;;;4854541;29;20397;-78
2022/03/10 14:38:35;;;;;;;19.98;4.03;;;;;;;;;;4855131;29;20487;-79
2022/03/10 14:41:04;;;;;;;5.50;3.97;;;;;;;;;;4853862;29;20056;-79
2022/03/10 14:43:32;;;;;;;6.20;4.75;;;;;;;;;;4855276;29;20061;-79
2022/03/10 14:46:00;;;;;;;4.70;3.65;;;;;;;;;;4855350;29;20065;-78
2022/03/10 14:48:28;;;;;;;6.95;4.75;;;;;;;;;;4854462;29;20780;-79
2022/03/10 14:51:05;;;;;;;5.93;5.35;;;;;;;;;;4854564;29;20053;-79
2022/03/10 14:53:34;;;;;;;3.92;3.58;;;;;;;;;;4854625;29;20053;-78
2022/03/10 14:56:03;;;;;;;6.95;5.75;;;;;;;;;;4822320;29;20068;-79
2022/03/10 14:58:31;;;;;;;8.55;5.05;;;;;;;;;;4854889;29;20049;-79
2022/03/10 15:01:00;;;;;;;5.05;4.60;;;;;;;;;;4837791;29;20061;-79
2022/03/10 15:03:28;;;;;;;8.57;7.70;;;;;;;;;;4854841;29;20548;-78
2022/03/10 15:05:57;;;;;;;8.32;6.22;;;;;;;;;;4854415;29;20054;-78
2022/03/10 15:08:25;;;;;;;5.90;4.80;;;;;;;;;;4854519;29;20069;-79
2022/03/10 15:10:53;;;;;;;6.75;5.72;;;;;;;;;;4854366;29;20065;-78